sensor_id;sensor_type;location;lat;lon;timestamp;pressure;altitude;pressure_sealevel;temperature;humidity
45323;BME280;31382;50.200;8.674;2023-09-30T00:04:11;101121.16;;;18.77;65.10
45323;BME280;31382;50.200;8.674;2023-09-30T00:09:13;101145.31;;;18.80;65.01
45323;BME280;31382;50.200;8.674;2023-09-30T00:14:14;101146.75;;;18.76;65.14
45323;BME280;31382;50.200;8.674;2023-09-30T00:19:16;101158.69;;;18.69;65.31
45323;BME280;31382;50.200;8.674;2023-09-30T00:24:17;101164.13;;;18.75;65.09
45323;BME280;31382;50.200;8.674;2023-09-30T00:29:19;101166.03;;;18.75;65.08
45323;BME280;31382;50.200;8.674;2023-09-30T00:34:20;101161.41;;;18.69;64.90
45323;BME280;31382;50.200;8.674;2023-09-30T00:39:22;101165.16;;;18.68;64.96
45323;BME280;31382;50.200;8.674;2023-09-30T00:44:27;101175.66;;;18.77;64.83
45323;BME280;31382;50.200;8.674;2023-09-30T00:49:29;101186.75;;;18.76;64.58
45323;BME280;31382;50.200;8.674;2023-09-30T00:54:30;101175.22;;;18.74;64.68
45323;BME280;31382;50.200;8.674;2023-09-30T00:59:32;101181.94;;;18.71;64.71
45323;BME280;31382;50.200;8.674;2023-09-30T01:04:34;101178.59;;;18.62;65.00
45323;BME280;31382;50.200;8.674;2023-09-30T01:09:37;101177.53;;;18.63;64.62
45323;BME280;31382;50.200;8.674;2023-09-30T01:14:38;101182.56;;;18.53;64.94
45323;BME280;31382;50.200;8.674;2023-09-30T01:19:41;101194.31;;;18.60;64.58
45323;BME280;31382;50.200;8.674;2023-09-30T01:24:46;101203.94;;;18.70;64.09
45323;BME280;31382;50.200;8.674;2023-09-30T01:29:48;101209.41;;;18.76;63.96
45323;BME280;31382;50.200;8.674;2023-09-30T01:34:50;101208.97;;;18.73;64.00
45323;BME280;31382;50.200;8.674;2023-09-30T01:39:52;101198.09;;;18.79;63.88
45323;BME280;31382;50.200;8.674;2023-09-30T01:44:56;101206.66;;;18.70;63.76
45323;BME280;31382;50.200;8.674;2023-09-30T01:49:59;101206.25;;;18.66;63.70
45323;BME280;31382;50.200;8.674;2023-09-30T01:55:00;101198.28;;;18.45;63.73
45323;BME280;31382;50.200;8.674;2023-09-30T02:00:02;101191.97;;;18.31;63.78
45323;BME280;31382;50.200;8.674;2023-09-30T02:05:05;101194.41;;;18.12;63.84
45323;BME280;31382;50.200;8.674;2023-09-30T02:10:09;101197.06;;;17.86;64.01
45323;BME280;31382;50.200;8.674;2023-09-30T02:15:11;101215.38;;;17.77;64.03
45323;BME280;31382;50.200;8.674;2023-09-30T02:20:13;101210.56;;;17.72;64.03
45323;BME280;31382;50.200;8.674;2023-09-30T02:25:18;101217.66;;;17.67;64.07
45323;BME280;31382;50.200;8.674;2023-09-30T02:30:19;101218.38;;;17.47;64.43
45323;BME280;31382;50.200;8.674;2023-09-30T02:35:22;101227.09;;;17.36;64.51
45323;BME280;31382;50.200;8.674;2023-09-30T02:40:24;101208.47;;;17.33;64.74
45323;BME280;31382;50.200;8.674;2023-09-30T02:45:26;101204.13;;;17.38;64.39
45323;BME280;31382;50.200;8.674;2023-09-30T02:50:28;101206.41;;;17.41;64.19
45323;BME280;31382;50.200;8.674;2023-09-30T02:55:29;101228.09;;;17.28;64.71
45323;BME280;31382;50.200;8.674;2023-09-30T03:00:30;101238.06;;;17.21;64.66
45323;BME280;31382;50.200;8.674;2023-09-30T03:05:34;101251.19;;;17.17;64.65
45323;BME280;31382;50.200;8.674;2023-09-30T03:10:36;101231.69;;;17.07;64.89
45323;BME280;31382;50.200;8.674;2023-09-30T03:15:41;101228.16;;;17.07;64.79
45323;BME280;31382;50.200;8.674;2023-09-30T03:20:43;101236.69;;;17.03;65.02
45323;BME280;31382;50.200;8.674;2023-09-30T03:25:44;101236.63;;;16.97;65.28
45323;BME280;31382;50.200;8.674;2023-09-30T03:30:46;101222.59;;;16.93;65.27
45323;BME280;31382;50.200;8.674;2023-09-30T03:35:48;101234.28;;;16.94;65.27
45323;BME280;31382;50.200;8.674;2023-09-30T03:40:49;101254.97;;;16.73;65.75
45323;BME280;31382;50.200;8.674;2023-09-30T03:45:51;101263.72;;;16.69;65.94
45323;BME280;31382;50.200;8.674;2023-09-30T03:50:54;101267.50;;;16.74;65.55
45323;BME280;31382;50.200;8.674;2023-09-30T03:55:56;101266.50;;;16.75;65.70
45323;BME280;31382;50.200;8.674;2023-09-30T04:00:57;101284.06;;;16.79;65.48
45323;BME280;31382;50.200;8.674;2023-09-30T04:06:00;101273.88;;;16.81;65.48
45323;BME280;31382;50.200;8.674;2023-09-30T04:11:02;101256.72;;;16.81;65.92
45323;BME280;31382;50.200;8.674;2023-09-30T04:16:04;101260.59;;;16.72;65.85
45323;BME280;31382;50.200;8.674;2023-09-30T04:21:06;101276.25;;;16.70;66.28
45323;BME280;31382;50.200;8.674;2023-09-30T04:26:08;101284.56;;;16.68;66.17
45323;BME280;31382;50.200;8.674;2023-09-30T04:31:11;101281.69;;;16.70;66.12
45323;BME280;31382;50.200;8.674;2023-09-30T04:36:15;101295.06;;;16.71;66.35
45323;BME280;31382;50.200;8.674;2023-09-30T04:41:16;101290.00;;;16.68;66.44
45323;BME280;31382;50.200;8.674;2023-09-30T04:46:18;101293.31;;;16.63;66.38
45323;BME280;31382;50.200;8.674;2023-09-30T04:51:23;101287.59;;;16.58;66.40
45323;BME280;31382;50.200;8.674;2023-09-30T04:56:27;101286.72;;;16.51;66.45
45323;BME280;31382;50.200;8.674;2023-09-30T05:01:28;101297.75;;;16.50;66.73
45323;BME280;31382;50.200;8.674;2023-09-30T05:06:32;101288.97;;;16.48;66.59
45323;BME280;31382;50.200;8.674;2023-09-30T05:11:35;101290.44;;;16.50;66.74
45323;BME280;31382;50.200;8.674;2023-09-30T05:16:36;101296.72;;;16.51;66.81
45323;BME280;31382;50.200;8.674;2023-09-30T05:21:38;101291.28;;;16.51;66.84
45323;BME280;31382;50.200;8.674;2023-09-30T05:26:39;101290.06;;;16.53;66.77
45323;BME280;31382;50.200;8.674;2023-09-30T05:31:41;101299.88;;;16.54;66.80
45323;BME280;31382;50.200;8.674;2023-09-30T05:36:43;101305.50;;;16.53;66.86
45323;BME280;31382;50.200;8.674;2023-09-30T05:41:45;101319.00;;;16.46;66.81
45323;BME280;31382;50.200;8.674;2023-09-30T05:46:48;101319.19;;;16.44;66.83
45323;BME280;31382;50.200;8.674;2023-09-30T05:51:49;101317.25;;;16.38;67.09
45323;BME280;31382;50.200;8.674;2023-09-30T05:56:52;101329.69;;;16.33;67.17
45323;BME280;31382;50.200;8.674;2023-09-30T06:01:53;101322.78;;;16.30;67.10
45323;BME280;31382;50.200;8.674;2023-09-30T06:06:55;101324.38;;;16.24;67.20
45323;BME280;31382;50.200;8.674;2023-09-30T06:11:57;101337.75;;;16.11;67.33
45323;BME280;31382;50.200;8.674;2023-09-30T06:16:58;101341.53;;;16.10;67.46
45323;BME280;31382;50.200;8.674;2023-09-30T06:22:00;101346.28;;;16.08;67.36
45323;BME280;31382;50.200;8.674;2023-09-30T06:27:01;101347.69;;;16.04;67.85
45323;BME280;31382;50.200;8.674;2023-09-30T06:32:03;101366.78;;;15.96;68.05
45323;BME280;31382;50.200;8.674;2023-09-30T06:37:04;101358.16;;;15.92;67.87
45323;BME280;31382;50.200;8.674;2023-09-30T06:42:06;101362.66;;;16.00;67.81
45323;BME280;31382;50.200;8.674;2023-09-30T06:47:08;101359.09;;;16.14;67.46
45323;BME280;31382;50.200;8.674;2023-09-30T06:52:13;101369.09;;;16.29;67.41
45323;BME280;31382;50.200;8.674;2023-09-30T06:57:14;101383.13;;;16.32;67.20
45323;BME280;31382;50.200;8.674;2023-09-30T07:02:16;101370.56;;;16.46;66.84
45323;BME280;31382;50.200;8.674;2023-09-30T07:07:17;101385.16;;;16.60;66.67
45323;BME280;31382;50.200;8.674;2023-09-30T07:12:18;101372.50;;;16.67;66.70
45323;BME280;31382;50.200;8.674;2023-09-30T07:17:22;101379.06;;;16.73;66.88
45323;BME280;31382;50.200;8.674;2023-09-30T07:22:23;101381.09;;;16.85;66.46
45323;BME280;31382;50.200;8.674;2023-09-30T07:27:44;101370.63;;;17.04;66.04
45323;BME280;31382;50.200;8.674;2023-09-30T07:32:49;101389.22;;;17.22;65.93
45323;BME280;31382;50.200;8.674;2023-09-30T07:37:51;101387.47;;;17.36;65.77
45323;BME280;31382;50.200;8.674;2023-09-30T07:42:55;101382.13;;;17.49;65.65
45323;BME280;31382;50.200;8.674;2023-09-30T07:47:57;101377.63;;;17.63;65.54
45323;BME280;31382;50.200;8.674;2023-09-30T07:53:06;101376.91;;;17.76;65.02
45323;BME280;31382;50.200;8.674;2023-09-30T07:58:07;101373.22;;;17.83;64.64
45323;BME280;31382;50.200;8.674;2023-09-30T08:03:09;101372.75;;;17.80;63.96
45323;BME280;31382;50.200;8.674;2023-09-30T08:08:10;101363.22;;;17.91;63.00
45323;BME280;31382;50.200;8.674;2023-09-30T08:13:12;101373.56;;;18.09;62.36
45323;BME280;31382;50.200;8.674;2023-09-30T08:18:13;101394.19;;;18.24;61.68
45323;BME280;31382;50.200;8.674;2023-09-30T08:23:15;101391.50;;;18.31;61.61
45323;BME280;31382;50.200;8.674;2023-09-30T08:28:16;101383.00;;;18.48;60.99
45323;BME280;31382;50.200;8.674;2023-09-30T08:33:18;101402.94;;;18.55;60.35
45323;BME280;31382;50.200;8.674;2023-09-30T08:38:19;101392.50;;;18.65;59.60
45323;BME280;31382;50.200;8.674;2023-09-30T08:43:24;101415.16;;;18.72;59.45
45323;BME280;31382;50.200;8.674;2023-09-30T08:48:29;101417.06;;;18.78;58.56
45323;BME280;31382;50.200;8.674;2023-09-30T08:53:34;101416.72;;;18.88;58.33
45323;BME280;31382;50.200;8.674;2023-09-30T08:58:36;101419.03;;;18.98;58.47
45323;BME280;31382;50.200;8.674;2023-09-30T09:03:38;101416.34;;;19.11;58.29
45323;BME280;31382;50.200;8.674;2023-09-30T09:08:40;101427.50;;;19.30;58.07
45323;BME280;31382;50.200;8.674;2023-09-30T09:18:50;101439.69;;;19.47;57.15
45323;BME280;31382;50.200;8.674;2023-09-30T09:23:53;101427.94;;;19.67;56.10
45323;BME280;31382;50.200;8.674;2023-09-30T09:29:00;101430.25;;;19.70;55.80
45323;BME280;31382;50.200;8.674;2023-09-30T09:34:13;101427.16;;;19.73;54.99
45323;BME280;31382;50.200;8.674;2023-09-30T09:39:15;101437.00;;;19.87;54.96
45323;BME280;31382;50.200;8.674;2023-09-30T09:44:22;101442.44;;;20.00;54.96
45323;BME280;31382;50.200;8.674;2023-09-30T09:49:24;101432.78;;;19.98;54.77
45323;BME280;31382;50.200;8.674;2023-09-30T09:54:27;101438.63;;;20.08;54.23
45323;BME280;31382;50.200;8.674;2023-09-30T09:59:30;101422.28;;;19.88;53.73
45323;BME280;31382;50.200;8.674;2023-09-30T10:04:33;101406.28;;;20.12;53.39
45323;BME280;31382;50.200;8.674;2023-09-30T10:09:34;101387.31;;;20.37;53.03
45323;BME280;31382;50.200;8.674;2023-09-30T10:14:36;101376.72;;;20.67;52.46
45323;BME280;31382;50.200;8.674;2023-09-30T10:20:06;101380.28;;;21.06;51.73
45323;BME280;31382;50.200;8.674;2023-09-30T10:25:33;101373.16;;;21.30;51.26
45323;BME280;31382;50.200;8.674;2023-09-30T10:30:35;101372.19;;;21.75;50.41
45323;BME280;31382;50.200;8.674;2023-09-30T10:40:38;101370.44;;;22.24;49.10
45323;BME280;31382;50.200;8.674;2023-09-30T10:45:43;101373.72;;;22.33;48.64
45323;BME280;31382;50.200;8.674;2023-09-30T10:50:50;101373.25;;;22.36;48.22
45323;BME280;31382;50.200;8.674;2023-09-30T10:55:55;101367.31;;;22.39;48.41
45323;BME280;31382;50.200;8.674;2023-09-30T11:00:57;101367.84;;;22.48;48.01
45323;BME280;31382;50.200;8.674;2023-09-30T11:05:59;101367.47;;;22.44;47.90
45323;BME280;31382;50.200;8.674;2023-09-30T11:11:14;101361.53;;;22.29;48.12
45323;BME280;31382;50.200;8.674;2023-09-30T11:16:15;101378.47;;;22.19;47.77
45323;BME280;31382;50.200;8.674;2023-09-30T11:21:17;101385.94;;;22.49;47.28
45323;BME280;31382;50.200;8.674;2023-09-30T11:26:29;101373.38;;;22.90;45.71
45323;BME280;31382;50.200;8.674;2023-09-30T11:31:32;101370.41;;;22.61;46.64
45323;BME280;31382;50.200;8.674;2023-09-30T11:36:54;101365.72;;;22.50;46.69
45323;BME280;31382;50.200;8.674;2023-09-30T11:41:57;101365.59;;;22.75;46.51
45323;BME280;31382;50.200;8.674;2023-09-30T11:47:00;101368.25;;;23.24;45.72
45323;BME280;31382;50.200;8.674;2023-09-30T11:52:12;101361.22;;;23.28;44.61
45323;BME280;31382;50.200;8.674;2023-09-30T11:57:15;101357.09;;;24.08;43.73
45323;BME280;31382;50.200;8.674;2023-09-30T12:02:17;101351.31;;;25.02;42.69
45323;BME280;31382;50.200;8.674;2023-09-30T12:07:19;101336.81;;;25.58;41.99
45323;BME280;31382;50.200;8.674;2023-09-30T12:12:21;101340.31;;;25.70;41.65
45323;BME280;31382;50.200;8.674;2023-09-30T12:17:22;101333.78;;;25.93;40.72
45323;BME280;31382;50.200;8.674;2023-09-30T12:22:23;101326.16;;;26.22;40.27
45323;BME280;31382;50.200;8.674;2023-09-30T12:27:25;101322.53;;;26.44;39.28
45323;BME280;31382;50.200;8.674;2023-09-30T12:32:26;101311.66;;;26.54;39.30
45323;BME280;31382;50.200;8.674;2023-09-30T12:37:28;101320.00;;;26.86;38.62
45323;BME280;31382;50.200;8.674;2023-09-30T12:42:30;101314.16;;;26.34;39.07
45323;BME280;31382;50.200;8.674;2023-09-30T12:47:31;101307.06;;;26.16;38.67
45323;BME280;31382;50.200;8.674;2023-09-30T12:52:33;101315.13;;;26.22;38.35
45323;BME280;31382;50.200;8.674;2023-09-30T12:57:34;101307.78;;;26.55;37.73
45323;BME280;31382;50.200;8.674;2023-09-30T13:02:36;101313.66;;;26.59;37.69
45323;BME280;31382;50.200;8.674;2023-09-30T13:07:38;101315.22;;;26.55;37.41
45323;BME280;31382;50.200;8.674;2023-09-30T13:12:39;101315.53;;;26.80;37.00
45323;BME280;31382;50.200;8.674;2023-09-30T13:17:44;101301.44;;;26.55;37.55
45323;BME280;31382;50.200;8.674;2023-09-30T13:22:46;101300.31;;;26.28;37.75
45323;BME280;31382;50.200;8.674;2023-09-30T13:27:48;101283.19;;;26.04;37.84
45323;BME280;31382;50.200;8.674;2023-09-30T13:32:50;101271.00;;;26.22;37.65
45323;BME280;31382;50.200;8.674;2023-09-30T13:37:51;101263.19;;;26.58;37.53
45323;BME280;31382;50.200;8.674;2023-09-30T13:42:53;101278.13;;;26.95;36.23
45323;BME280;31382;50.200;8.674;2023-09-30T13:47:54;101279.47;;;26.92;36.71
45323;BME280;31382;50.200;8.674;2023-09-30T13:52:56;101278.56;;;27.19;36.26
45323;BME280;31382;50.200;8.674;2023-09-30T13:57:58;101266.31;;;27.37;35.30
45323;BME280;31382;50.200;8.674;2023-09-30T14:03:00;101254.34;;;27.68;34.69
45323;BME280;31382;50.200;8.674;2023-09-30T14:08:01;101254.56;;;28.15;34.39
45323;BME280;31382;50.200;8.674;2023-09-30T14:13:03;101250.22;;;28.44;33.59
45323;BME280;31382;50.200;8.674;2023-09-30T14:18:05;101244.59;;;29.67;31.67
45323;BME280;31382;50.200;8.674;2023-09-30T14:23:07;101239.38;;;30.26;31.13
45323;BME280;31382;50.200;8.674;2023-09-30T14:28:09;101232.88;;;29.96;30.78
45323;BME280;31382;50.200;8.674;2023-09-30T14:33:10;101229.16;;;29.56;31.44
45323;BME280;31382;50.200;8.674;2023-09-30T14:38:12;101229.09;;;29.72;30.71
45323;BME280;31382;50.200;8.674;2023-09-30T14:43:13;101228.38;;;29.04;30.57
45323;BME280;31382;50.200;8.674;2023-09-30T14:48:15;101230.34;;;28.83;31.28
45323;BME280;31382;50.200;8.674;2023-09-30T14:53:16;101226.34;;;28.18;31.30
45323;BME280;31382;50.200;8.674;2023-09-30T14:58:18;101225.09;;;27.78;31.91
45323;BME280;31382;50.200;8.674;2023-09-30T15:03:20;101228.78;;;26.71;32.09
45323;BME280;31382;50.200;8.674;2023-09-30T15:08:24;101227.19;;;26.21;33.12
45323;BME280;31382;50.200;8.674;2023-09-30T15:13:26;101229.22;;;25.86;33.02
45323;BME280;31382;50.200;8.674;2023-09-30T15:18:28;101227.97;;;25.33;33.20
45323;BME280;31382;50.200;8.674;2023-09-30T15:23:29;101231.66;;;25.05;33.29
45323;BME280;31382;50.200;8.674;2023-09-30T15:28:34;101221.31;;;24.95;33.22
45323;BME280;31382;50.200;8.674;2023-09-30T15:33:35;101222.16;;;24.79;33.79
45323;BME280;31382;50.200;8.674;2023-09-30T15:38:37;101227.22;;;24.53;33.93
45323;BME280;31382;50.200;8.674;2023-09-30T15:43:38;101239.13;;;24.30;35.05
45323;BME280;31382;50.200;8.674;2023-09-30T15:48:39;101236.06;;;23.86;35.22
45323;BME280;31382;50.200;8.674;2023-09-30T15:53:41;101239.91;;;23.26;35.58
45323;BME280;31382;50.200;8.674;2023-09-30T15:58:42;101245.75;;;23.17;36.23
45323;BME280;31382;50.200;8.674;2023-09-30T16:03:44;101252.78;;;23.13;36.95
45323;BME280;31382;50.200;8.674;2023-09-30T16:08:45;101248.59;;;22.99;36.78
45323;BME280;31382;50.200;8.674;2023-09-30T16:13:47;101248.78;;;22.74;37.10
45323;BME280;31382;50.200;8.674;2023-09-30T16:18:48;101244.69;;;22.65;37.67
45323;BME280;31382;50.200;8.674;2023-09-30T16:23:50;101254.78;;;22.52;37.70
45323;BME280;31382;50.200;8.674;2023-09-30T16:28:51;101251.97;;;22.29;38.27
45323;BME280;31382;50.200;8.674;2023-09-30T16:33:52;101238.97;;;21.87;39.38
45323;BME280;31382;50.200;8.674;2023-09-30T16:38:54;101234.97;;;21.71;39.55
45323;BME280;31382;50.200;8.674;2023-09-30T16:43:56;101236.31;;;21.62;40.39
45323;BME280;31382;50.200;8.674;2023-09-30T16:48:58;101247.25;;;21.44;40.61
45323;BME280;31382;50.200;8.674;2023-09-30T16:53:59;101249.09;;;21.25;41.47
45323;BME280;31382;50.200;8.674;2023-09-30T16:59:01;101242.97;;;21.04;41.96
45323;BME280;31382;50.200;8.674;2023-09-30T17:04:03;101245.25;;;20.82;42.84
45323;BME280;31382;50.200;8.674;2023-09-30T17:09:05;101257.78;;;20.65;43.57
45323;BME280;31382;50.200;8.674;2023-09-30T17:14:07;101255.56;;;20.48;43.85
45323;BME280;31382;50.200;8.674;2023-09-30T17:19:08;101259.84;;;20.31;44.48
45323;BME280;31382;50.200;8.674;2023-09-30T17:24:10;101273.38;;;20.12;45.39
45323;BME280;31382;50.200;8.674;2023-09-30T17:29:12;101262.31;;;19.94;45.65
45323;BME280;31382;50.200;8.674;2023-09-30T17:34:13;101267.63;;;19.75;45.72
45323;BME280;31382;50.200;8.674;2023-09-30T17:39:15;101272.91;;;19.57;46.28
45323;BME280;31382;50.200;8.674;2023-09-30T17:44:17;101273.53;;;19.39;46.35
45323;BME280;31382;50.200;8.674;2023-09-30T17:49:18;101286.16;;;19.20;46.83
45323;BME280;31382;50.200;8.674;2023-09-30T17:54:20;101288.63;;;19.01;47.32
45323;BME280;31382;50.200;8.674;2023-09-30T17:59:21;101278.13;;;18.78;47.77
45323;BME280;31382;50.200;8.674;2023-09-30T18:04:23;101290.00;;;18.51;48.08
45323;BME280;31382;50.200;8.674;2023-09-30T18:09:24;101296.03;;;18.39;48.50
45323;BME280;31382;50.200;8.674;2023-09-30T18:14:27;101284.72;;;18.36;48.85
45323;BME280;31382;50.200;8.674;2023-09-30T18:19:28;101287.00;;;18.26;49.17
45323;BME280;31382;50.200;8.674;2023-09-30T18:24:30;101291.16;;;18.15;49.41
45323;BME280;31382;50.200;8.674;2023-09-30T18:29:31;101276.03;;;18.06;49.84
45323;BME280;31382;50.200;8.674;2023-09-30T18:34:32;101280.59;;;17.98;50.18
45323;BME280;31382;50.200;8.674;2023-09-30T18:39:34;101277.22;;;17.90;50.72
45323;BME280;31382;50.200;8.674;2023-09-30T18:44:35;101281.06;;;17.74;51.15
45323;BME280;31382;50.200;8.674;2023-09-30T18:49:37;101277.25;;;17.61;51.49
45323;BME280;31382;50.200;8.674;2023-09-30T18:54:38;101279.41;;;17.44;51.92
45323;BME280;31382;50.200;8.674;2023-09-30T18:59:40;101294.09;;;17.22;52.89
45323;BME280;31382;50.200;8.674;2023-09-30T19:04:41;101294.44;;;17.12;53.07
45323;BME280;31382;50.200;8.674;2023-09-30T19:09:43;101287.47;;;17.03;53.71
45323;BME280;31382;50.200;8.674;2023-09-30T19:14:44;101298.00;;;16.91;54.09
45323;BME280;31382;50.200;8.674;2023-09-30T19:19:46;101292.66;;;16.61;54.86
45323;BME280;31382;50.200;8.674;2023-09-30T19:24:47;101286.06;;;16.49;55.08
45323;BME280;31382;50.200;8.674;2023-09-30T19:29:50;101290.50;;;16.35;55.49
45323;BME280;31382;50.200;8.674;2023-09-30T19:34:53;101291.56;;;16.19;56.01
45323;BME280;31382;50.200;8.674;2023-09-30T19:39:54;101303.72;;;16.09;56.27
45323;BME280;31382;50.200;8.674;2023-09-30T19:44:56;101298.88;;;16.04;56.71
45323;BME280;31382;50.200;8.674;2023-09-30T19:49:57;101306.38;;;16.02;56.99
45323;BME280;31382;50.200;8.674;2023-09-30T19:54:59;101308.97;;;15.95;57.05
45323;BME280;31382;50.200;8.674;2023-09-30T20:00:00;101306.66;;;15.92;57.28
45323;BME280;31382;50.200;8.674;2023-09-30T20:05:02;101302.63;;;15.88;57.24
45323;BME280;31382;50.200;8.674;2023-09-30T20:10:07;101298.38;;;15.71;58.03
45323;BME280;31382;50.200;8.674;2023-09-30T20:15:09;101289.78;;;15.67;57.90
45323;BME280;31382;50.200;8.674;2023-09-30T20:20:11;101284.94;;;15.62;58.13
45323;BME280;31382;50.200;8.674;2023-09-30T20:25:17;101292.94;;;15.56;58.64
45323;BME280;31382;50.200;8.674;2023-09-30T20:30:19;101305.00;;;15.38;58.91
45323;BME280;31382;50.200;8.674;2023-09-30T20:35:20;101310.78;;;15.35;59.11
45323;BME280;31382;50.200;8.674;2023-09-30T20:40:22;101315.88;;;15.30;59.37
45323;BME280;31382;50.200;8.674;2023-09-30T20:45:24;101319.47;;;15.07;60.17
45323;BME280;31382;50.200;8.674;2023-09-30T20:50:25;101321.03;;;15.02;60.45
45323;BME280;31382;50.200;8.674;2023-09-30T20:55:31;101323.25;;;14.98;60.57
45323;BME280;31382;50.200;8.674;2023-09-30T21:00:33;101327.50;;;15.01;60.47
45323;BME280;31382;50.200;8.674;2023-09-30T21:05:38;101328.50;;;15.00;60.72
45323;BME280;31382;50.200;8.674;2023-09-30T21:10:40;101331.94;;;14.94;60.63
45323;BME280;31382;50.200;8.674;2023-09-30T21:15:41;101328.25;;;14.86;61.00
45323;BME280;31382;50.200;8.674;2023-09-30T21:20:43;101324.59;;;14.79;61.17
45323;BME280;31382;50.200;8.674;2023-09-30T21:25:44;101309.75;;;14.75;61.20
45323;BME280;31382;50.200;8.674;2023-09-30T21:30:46;101323.63;;;14.72;61.44
45323;BME280;31382;50.200;8.674;2023-09-30T21:35:55;101319.47;;;14.61;61.70
45323;BME280;31382;50.200;8.674;2023-09-30T21:40:57;101326.75;;;14.53;61.91
45323;BME280;31382;50.200;8.674;2023-09-30T21:45:59;101325.44;;;14.48;61.84
45323;BME280;31382;50.200;8.674;2023-09-30T21:51:01;101330.50;;;14.43;62.10
45323;BME280;31382;50.200;8.674;2023-09-30T21:56:03;101323.97;;;14.38;62.31
45323;BME280;31382;50.200;8.674;2023-09-30T22:01:05;101328.06;;;14.34;62.39
45323;BME280;31382;50.200;8.674;2023-09-30T22:06:08;101333.13;;;14.28;62.50
45323;BME280;31382;50.200;8.674;2023-09-30T22:11:09;101320.81;;;14.26;62.51
45323;BME280;31382;50.200;8.674;2023-09-30T22:16:11;101324.22;;;14.20;62.81
45323;BME280;31382;50.200;8.674;2023-09-30T22:21:13;101332.22;;;14.05;63.17
45323;BME280;31382;50.200;8.674;2023-09-30T22:26:14;101331.06;;;13.99;63.37
45323;BME280;31382;50.200;8.674;2023-09-30T22:31:16;101327.38;;;13.92;63.74
45323;BME280;31382;50.200;8.674;2023-09-30T22:36:17;101311.31;;;13.91;63.42
45323;BME280;31382;50.200;8.674;2023-09-30T22:41:20;101318.78;;;13.88;63.47
45323;BME280;31382;50.200;8.674;2023-09-30T22:46:22;101306.97;;;13.81;63.52
45323;BME280;31382;50.200;8.674;2023-09-30T22:51:24;101317.09;;;13.79;63.41
45323;BME280;31382;50.200;8.674;2023-09-30T22:56:25;101314.56;;;13.78;63.53
45323;BME280;31382;50.200;8.674;2023-09-30T23:01:27;101315.94;;;13.74;63.63
45323;BME280;31382;50.200;8.674;2023-09-30T23:06:29;101319.66;;;13.73;63.73
45323;BME280;31382;50.200;8.674;2023-09-30T23:11:30;101326.22;;;13.70;63.90
45323;BME280;31382;50.200;8.674;2023-09-30T23:16:32;101325.75;;;13.66;64.03
45323;BME280;31382;50.200;8.674;2023-09-30T23:21:35;101318.16;;;13.62;64.14
45323;BME280;31382;50.200;8.674;2023-09-30T23:26:37;101322.88;;;13.60;64.06
45323;BME280;31382;50.200;8.674;2023-09-30T23:31:39;101316.66;;;13.51;64.36
45323;BME280;31382;50.200;8.674;2023-09-30T23:36:43;101326.44;;;13.44;64.40
45323;BME280;31382;50.200;8.674;2023-09-30T23:41:45;101329.84;;;13.38;64.48
45323;BME280;31382;50.200;8.674;2023-09-30T23:46:50;101344.03;;;13.32;64.64
45323;BME280;31382;50.200;8.674;2023-09-30T23:51:53;101345.66;;;13.24;64.77
45323;BME280;31382;50.200;8.674;2023-09-30T23:56:55;101351.22;;;13.15;64.79
